Time;durP1;ratioP1;P1;durP2;ratioP2;P2;SDS_P1;SDS_P2;PMS_P1;PMS_P2;Temp;Humidity;BMP_temperature;BMP_pressure;BME280_temperature;BME280_humidity;BME280_pressure;Samples;Min_cycle;Max_cycle;Signal;HPM_P1;HPM_P2
2022/07/21 00:01:03;;;;;;;26.02;21.63;;;20.90;99.90;;;;;;5015940;28;20457;-68
2022/07/21 00:03:29;;;;;;;26.70;20.13;;;20.90;99.90;;;;;;5015812;28;20061;-69
2022/07/21 00:05:54;;;;;;;24.50;20.42;;;20.90;99.90;;;;;;4998244;28;20065;-71
2022/07/21 00:08:20;;;;;;;26.00;20.30;;;20.90;99.90;;;;;;5015589;28;20410;-69
2022/07/21 00:10:46;;;;;;;30.20;20.80;;;20.90;99.90;;;;;;5015773;28;20045;-66
2022/07/21 00:13:12;;;;;;;27.30;21.35;;;20.90;99.90;;;;;;5028949;28;20186;-67
2022/07/21 00:15:38;;;;;;;26.35;22.13;;;20.90;99.90;;;;;;5035340;28;20080;-67
2022/07/21 00:18:04;;;;;;;32.03;24.58;;;20.90;99.90;;;;;;5034751;28;20038;-68
2022/07/21 00:20:30;;;;;;;35.60;26.38;;;20.80;99.90;;;;;;5034060;28;20040;-67
2022/07/21 00:22:56;;;;;;;30.08;26.08;;;20.70;99.90;;;;;;5035091;28;20347;-67
2022/07/21 00:25:22;;;;;;;36.92;29.65;;;20.60;99.90;;;;;;5035253;28;20041;-66
2022/07/21 00:27:48;;;;;;;32.40;28.50;;;20.50;99.90;;;;;;5035247;28;20111;-68
2022/07/21 00:30:14;;;;;;;39.03;30.25;;;20.40;99.90;;;;;;5035202;28;20065;-68
2022/07/21 00:32:41;;;;;;;40.85;30.60;;;20.30;99.90;;;;;;5034980;28;20041;-67
2022/07/21 00:35:08;;;;;;;44.10;31.45;;;20.20;99.90;;;;;;5034528;28;20033;-67
2022/07/21 00:37:33;;;;;;;41.10;31.73;;;20.20;99.90;;;;;;5034261;28;20045;-67
2022/07/21 00:39:59;;;;;;;44.67;36.90;;;20.10;99.90;;;;;;5034902;28;20368;-66
2022/07/21 00:42:27;;;;;;;43.45;35.83;;;20.10;99.90;;;;;;5017952;28;20056;-66
2022/07/21 00:44:53;;;;;;;44.58;35.67;;;20.10;99.90;;;;;;5034948;28;20042;-67
2022/07/21 00:47:27;;;;;;;43.83;36.15;;;20.00;99.90;;;;;;5034870;28;20103;-67
2022/07/21 00:49:54;;;;;;;51.20;40.13;;;20.00;99.90;;;;;;5033088;28;20356;-67
2022/07/21 00:52:20;;;;;;;47.65;37.83;;;20.00;99.90;;;;;;5034289;28;20442;-69
2022/07/21 00:54:46;;;;;;;49.08;37.58;;;20.10;99.90;;;;;;5034965;28;20041;-65
2022/07/21 00:57:13;;;;;;;53.15;37.20;;;20.00;99.90;;;;;;5034799;28;20037;-67
2022/07/21 00:59:39;;;;;;;45.15;35.95;;;20.10;99.90;;;;;;5034941;28;20064;-66
2022/07/21 01:02:05;;;;;;;38.65;34.10;;;20.20;99.90;;;;;;5034689;28;20037;-67
2022/07/21 01:04:31;;;;;;;43.42;35.53;;;20.10;99.90;;;;;;5034027;28;20436;-66
2022/07/21 01:06:57;;;;;;;45.42;35.80;;;20.20;99.90;;;;;;5034576;28;20049;-67
2022/07/21 01:09:23;;;;;;;46.47;37.55;;;20.20;99.90;;;;;;5034935;28;20052;-68
2022/07/21 01:11:49;;;;;;;51.40;39.45;;;20.10;99.90;;;;;;5034954;28;20029;-66
2022/07/21 01:14:15;;;;;;;45.67;38.00;;;20.10;99.90;;;;;;5034658;28;20037;-66
2022/07/21 01:16:43;;;;;;;46.40;38.90;;;20.20;99.90;;;;;;5034086;28;20041;-68
2022/07/21 01:19:09;;;;;;;50.15;41.22;;;20.00;99.90;;;;;;5033683;28;20053;-67
2022/07/21 01:21:39;;;;;;;45.08;37.40;;;20.20;99.90;;;;;;5034367;28;20527;-67
2022/07/21 01:24:05;;;;;;;47.88;38.03;;;20.20;99.90;;;;;;5034740;28;20052;-68
2022/07/21 01:26:43;;;;;;;47.78;37.47;;;20.20;99.90;;;;;;5034301;28;20058;-69
2022/07/21 01:29:10;;;;;;;49.10;37.90;;;20.20;99.90;;;;;;5034415;28;20052;-67
2022/07/21 01:31:36;;;;;;;47.08;38.13;;;20.30;99.90;;;;;;5034400;28;20053;-67
2022/07/21 01:34:02;;;;;;;47.42;38.63;;;20.30;99.90;;;;;;5033237;28;20125;-67
2022/07/21 01:36:28;;;;;;;43.10;35.78;;;20.30;99.90;;;;;;5034411;28;20056;-66
2022/07/21 01:41:38;;;;;;;46.60;36.75;;;20.10;99.90;;;;;;5034439;28;20053;-68
2022/07/21 01:44:06;;;;;;;36.97;30.83;;;20.20;99.90;;;;;;5034152;28;20352;-67
2022/07/21 01:46:35;;;;;;;40.33;33.78;;;20.20;99.90;;;;;;5033344;28;20049;-67
2022/07/21 01:49:01;;;;;;;41.05;33.72;;;20.20;99.90;;;;;;5036226;28;20037;-67
2022/07/21 01:51:27;;;;;;;36.33;31.20;;;20.20;99.90;;;;;;5038050;28;20041;-68
2022/07/21 01:53:53;;;;;;;39.35;32.72;;;20.30;99.90;;;;;;5038106;28;20112;-68
2022/07/21 01:56:20;;;;;;;38.42;31.55;;;20.20;99.90;;;;;;5037730;28;20049;-69
2022/07/21 01:58:47;;;;;;;42.45;32.25;;;20.40;99.90;;;;;;5004248;28;20107;-67
2022/07/21 02:01:14;;;;;;;37.13;31.80;;;20.20;99.90;;;;;;5037090;28;20059;-67
2022/07/21 02:03:40;;;;;;;34.65;30.88;;;20.30;99.90;;;;;;5036822;28;20041;-67
2022/07/21 02:06:07;;;;;;;39.38;35.15;;;20.20;99.90;;;;;;5020266;28;20115;-69
2022/07/21 02:08:33;;;;;;;39.28;34.65;;;20.40;99.90;;;;;;5020221;28;20053;-67
2022/07/21 02:10:58;;;;;;;43.45;35.80;;;20.30;99.90;;;;;;5037639;28;20853;-67
2022/07/21 02:13:24;;;;;;;41.05;34.67;;;20.30;99.90;;;;;;5037287;28;20183;-66
2022/07/21 02:15:50;;;;;;;38.30;32.80;;;20.30;99.90;;;;;;5036622;28;20073;-66
2022/07/21 02:18:15;;;;;;;45.22;35.97;;;20.40;99.90;;;;;;5037515;28;20092;-66
2022/07/21 02:20:41;;;;;;;40.55;33.80;;;20.20;99.90;;;;;;5037435;28;20068;-67
2022/07/21 02:23:07;;;;;;;44.53;34.17;;;20.40;99.90;;;;;;5019790;28;20050;-68
2022/07/21 02:25:32;;;;;;;41.55;32.75;;;20.30;99.90;;;;;;5036690;28;20125;-68
2022/07/21 02:27:58;;;;;;;41.88;32.35;;;20.30;99.90;;;;;;5037256;28;20470;-70
2022/07/21 02:30:23;;;;;;;42.55;36.28;;;20.30;99.90;;;;;;5036618;28;20088;-67
2022/07/21 02:32:49;;;;;;;46.60;33.88;;;20.50;99.90;;;;;;5036996;28;20439;-68
2022/07/21 02:35:15;;;;;;;42.88;34.28;;;20.40;99.90;;;;;;5037266;28;20095;-66
2022/07/21 02:37:40;;;;;;;37.42;31.02;;;20.40;99.90;;;;;;5037169;28;20476;-67
2022/07/21 02:40:06;;;;;;;45.88;34.80;;;20.20;99.90;;;;;;5037103;28;20052;-67
2022/07/21 02:42:32;;;;;;;41.53;32.25;;;20.30;99.90;;;;;;5037486;28;20042;-68
2022/07/21 02:44:58;;;;;;;40.03;29.00;;;20.20;99.90;;;;;;5035955;28;20518;-67
2022/07/21 02:47:23;;;;;;;36.47;30.60;;;20.30;99.90;;;;;;5036777;28;20037;-69
2022/07/21 02:49:49;;;;;;;46.20;35.13;;;20.30;99.90;;;;;;5036953;28;20160;-66
2022/07/21 02:52:14;;;;;;;33.90;30.02;;;20.30;99.90;;;;;;5036925;28;20108;-67
2022/07/21 02:54:40;;;;;;;47.80;33.20;;;20.20;99.90;;;;;;5036765;28;20132;-67
2022/07/21 02:57:05;;;;;;;45.67;35.97;;;20.10;99.90;;;;;;5036786;28;20083;-67
2022/07/21 02:59:31;;;;;;;43.30;35.22;;;20.20;99.90;;;;;;5035060;28;20466;-67
2022/07/21 03:01:57;;;;;;;52.92;38.30;;;20.10;99.90;;;;;;5036836;28;20041;-67
2022/07/21 03:04:22;;;;;;;42.88;34.95;;;20.00;99.90;;;;;;5036139;28;20345;-68
2022/07/21 03:06:48;;;;;;;54.20;37.85;;;19.90;99.90;;;;;;5036603;28;20041;-67
2022/07/21 03:09:14;;;;;;;50.72;38.35;;;19.80;99.90;;;;;;5036376;28;20421;-68
2022/07/21 03:11:39;;;;;;;49.38;38.92;;;19.90;99.90;;;;;;5036411;28;20056;-67
2022/07/21 03:14:05;;;;;;;48.45;39.17;;;19.90;99.90;;;;;;5035617;28;20104;-67
2022/07/21 03:16:31;;;;;;;66.15;43.70;;;19.50;99.90;;;;;;5036261;28;20131;-68
2022/07/21 03:18:57;;;;;;;47.10;38.85;;;19.70;99.90;;;;;;5036403;28;20056;-67
2022/07/21 03:21:23;;;;;;;49.25;38.95;;;19.60;99.90;;;;;;5018759;28;20037;-67
2022/07/21 03:23:48;;;;;;;50.80;38.13;;;19.70;99.90;;;;;;5036306;28;20060;-68
2022/07/21 03:26:15;;;;;;;53.72;42.45;;;19.60;99.90;;;;;;5036063;28;20064;-68
2022/07/21 03:28:42;;;;;;;52.17;37.78;;;19.70;99.90;;;;;;5034427;28;20517;-65
2022/07/21 03:31:08;;;;;;;50.75;36.88;;;19.50;99.90;;;;;;5018667;28;20491;-67
2022/07/21 03:33:33;;;;;;;57.15;41.30;;;19.40;99.90;;;;;;5036024;28;20045;-67
2022/07/21 03:35:59;;;;;;;47.72;37.13;;;19.40;99.90;;;;;;5018593;28;20048;-67
2022/07/21 03:38:25;;;;;;;60.15;43.47;;;19.50;99.90;;;;;;5018436;28;20132;-67
2022/07/21 03:40:50;;;;;;;65.22;41.35;;;19.30;99.90;;;;;;5035796;28;20103;-66
2022/07/21 03:43:16;;;;;;;54.22;40.17;;;19.30;99.90;;;;;;5035039;28;20048;-67
2022/07/21 03:45:42;;;;;;;56.05;41.28;;;19.40;99.90;;;;;;5018698;28;20045;-67
2022/07/21 03:48:08;;;;;;;52.80;40.63;;;19.40;99.90;;;;;;5035871;28;20482;-67
2022/07/21 03:50:38;;;;;;;51.53;40.13;;;19.20;99.90;;;;;;5035774;28;20049;-66
2022/07/21 03:53:05;;;;;;;57.17;43.60;;;19.40;99.90;;;;;;5035652;28;20041;-66
2022/07/21 03:55:31;;;;;;;72.10;48.38;;;19.50;99.90;;;;;;5021060;28;20137;-68
2022/07/21 03:58:00;;;;;;;61.92;42.50;;;19.20;99.90;;;;;;5016098;28;20373;-68
2022/07/21 04:00:35;;;;;;;58.45;44.53;;;19.20;99.90;;;;;;4998291;28;20468;-66
2022/07/21 04:03:01;;;;;;;60.33;44.45;;;19.20;99.90;;;;;;4998975;28;20057;-67
2022/07/21 04:05:27;;;;;;;55.65;42.08;;;19.50;99.90;;;;;;4998326;28;20045;-67
2022/07/21 04:07:54;;;;;;;68.18;47.03;;;19.10;99.90;;;;;;5015720;28;20073;-69
2022/07/21 04:10:22;;;;;;;62.58;46.33;;;19.10;99.90;;;;;;5029250;28;20056;-67
2022/07/21 04:12:48;;;;;;;64.40;45.08;;;19.10;99.90;;;;;;5034960;28;20052;-68
2022/07/21 04:15:14;;;;;;;68.75;49.13;;;19.10;99.90;;;;;;5035524;28;20096;-67
2022/07/21 04:17:40;;;;;;;64.13;46.50;;;19.20;99.90;;;;;;5035118;28;20499;-67
2022/07/21 04:20:08;;;;;;;65.57;46.95;;;19.20;99.90;;;;;;5035245;28;20045;-67
2022/07/21 04:22:34;;;;;;;67.70;49.58;;;19.50;99.90;;;;;;5035011;28;20055;-67
2022/07/21 04:25:00;;;;;;;93.43;57.90;;;19.40;99.90;;;;;;5016989;28;20037;-68
2022/07/21 04:27:26;;;;;;;82.53;54.10;;;19.30;99.90;;;;;;5035273;28;20478;-68
2022/07/21 04:29:52;;;;;;;63.53;47.75;;;19.60;99.90;;;;;;5034965;28;20045;-66
2022/07/21 04:32:18;;;;;;;59.33;46.80;;;19.50;99.90;;;;;;5034116;28;20044;-66
2022/07/21 04:34:43;;;;;;;68.25;48.80;;;19.30;99.90;;;;;;5035118;28;20455;-66
2022/07/21 04:37:09;;;;;;;83.95;53.60;;;19.30;99.90;;;;;;5034775;28;20057;-66
2022/07/21 04:39:34;;;;;;;68.72;48.08;;;19.40;99.90;;;;;;5034804;28;20044;-68
2022/07/21 04:42:00;;;;;;;85.63;54.22;;;19.40;99.90;;;;;;5035159;28;20132;-68
2022/07/21 04:44:25;;;;;;;67.15;48.70;;;19.50;99.90;;;;;;5033494;28;20049;-67
2022/07/21 04:46:51;;;;;;;73.70;51.45;;;19.40;99.90;;;;;;5034623;28;20041;-68
2022/07/21 04:49:17;;;;;;;90.53;57.97;;;19.50;99.90;;;;;;5034840;28;20080;-66
2022/07/21 04:51:42;;;;;;;80.65;56.42;;;19.40;99.90;;;;;;5034831;28;20041;-67
2022/07/21 04:54:08;;;;;;;55.03;44.05;;;19.30;99.90;;;;;;5034957;28;20053;-69
2022/07/21 04:56:34;;;;;;;69.63;49.40;;;19.30;99.90;;;;;;5034622;28;20110;-67
2022/07/21 04:59:03;;;;;;;54.05;42.00;;;19.50;99.90;;;;;;5013329;28;20045;-66
2022/07/21 05:01:28;;;;;;;49.35;37.63;;;19.40;99.90;;;;;;5026415;28;20048;-67
2022/07/21 05:03:54;;;;;;;56.08;41.25;;;19.30;99.90;;;;;;5033919;28;20042;-66
2022/07/21 05:06:20;;;;;;;52.22;39.47;;;19.30;99.90;;;;;;5034634;28;20460;-67
2022/07/21 05:08:45;;;;;;;42.88;32.72;;;19.20;99.90;;;;;;5029860;28;20041;-67
2022/07/21 05:11:11;;;;;;;45.50;35.05;;;19.20;99.90;;;;;;5022489;28;20453;-66
2022/07/21 05:13:36;;;;;;;44.95;32.08;;;19.30;99.90;;;;;;5014169;28;20144;-67
2022/07/21 05:16:02;;;;;;;39.88;30.73;;;19.30;99.90;;;;;;5006122;28;20468;-67
2022/07/21 05:18:28;;;;;;;45.83;32.70;;;19.30;99.90;;;;;;5034910;28;20045;-69
2022/07/21 05:20:53;;;;;;;41.70;32.70;;;19.20;99.90;;;;;;5034781;28;20049;-70
2022/07/21 05:23:19;;;;;;;40.53;30.98;;;19.10;99.90;;;;;;5039554;28;20047;-68
2022/07/21 05:25:44;;;;;;;40.95;30.05;;;19.30;99.90;;;;;;5043316;28;20045;-67
2022/07/21 05:28:10;;;;;;;42.30;29.83;;;19.20;99.90;;;;;;5040255;28;20053;-68
2022/07/21 05:30:35;;;;;;;39.67;29.52;;;19.40;99.90;;;;;;5038397;28;20046;-69
2022/07/21 05:33:01;;;;;;;33.80;26.20;;;19.10;99.90;;;;;;5019178;28;20481;-68
2022/07/21 05:35:27;;;;;;;38.03;28.95;;;19.40;99.90;;;;;;5038058;28;20107;-68
2022/07/21 05:37:53;;;;;;;34.95;24.65;;;19.20;99.90;;;;;;5037286;28;20038;-67
2022/07/21 05:40:18;;;;;;;38.78;27.80;;;19.30;99.90;;;;;;5004068;28;20041;-68
2022/07/21 05:42:44;;;;;;;30.10;23.83;;;19.30;99.90;;;;;;5020842;28;20041;-68
2022/07/21 05:45:10;;;;;;;32.78;26.63;;;19.30;99.90;;;;;;5037406;28;20132;-68
2022/07/21 05:47:36;;;;;;;31.85;22.80;;;19.30;99.90;;;;;;5036529;28;20049;-66
2022/07/21 05:50:02;;;;;;;30.45;22.23;;;19.60;99.90;;;;;;5018508;28;20060;-67
2022/07/21 05:52:28;;;;;;;27.25;23.42;;;19.50;99.90;;;;;;5037887;28;20041;-67
2022/07/21 05:54:53;;;;;;;30.33;23.45;;;19.60;99.90;;;;;;5037267;28;20048;-67
2022/07/21 05:57:19;;;;;;;29.17;21.48;;;19.60;99.90;;;;;;5037206;28;20045;-71
2022/07/21 05:59:45;;;;;;;31.92;21.00;;;19.40;99.90;;;;;;5037937;28;20041;-67
2022/07/21 06:02:11;;;;;;;33.03;23.60;;;19.30;99.90;;;;;;5037330;28;20455;-67
2022/07/21 06:04:36;;;;;;;32.40;24.92;;;19.50;99.90;;;;;;5037752;28;20056;-67
2022/07/21 06:07:02;;;;;;;32.42;25.42;;;19.50;99.90;;;;;;5020164;28;20167;-68
2022/07/21 06:09:28;;;;;;;39.00;24.48;;;19.60;99.90;;;;;;5020318;28;20053;-65
2022/07/21 06:11:54;;;;;;;32.88;24.98;;;19.60;99.90;;;;;;5032954;28;20041;-66
2022/07/21 06:14:20;;;;;;;33.72;25.83;;;19.90;99.90;;;;;;5003782;28;20128;-67
2022/07/21 06:16:46;;;;;;;30.02;24.02;;;19.60;99.90;;;;;;5036015;28;20049;-66
2022/07/21 06:19:11;;;;;;;30.88;22.02;;;19.60;99.90;;;;;;5037452;28;20107;-68
2022/07/21 06:21:37;;;;;;;30.90;22.98;;;19.70;99.90;;;;;;5037315;28;20474;-70
2022/07/21 06:24:03;;;;;;;27.67;21.52;;;19.60;99.90;;;;;;5019606;28;20360;-66
2022/07/21 06:26:28;;;;;;;28.05;21.58;;;19.90;99.90;;;;;;5019993;28;20049;-66
2022/07/21 06:28:54;;;;;;;25.02;19.73;;;19.90;99.90;;;;;;5037380;28;20056;-67
2022/07/21 06:31:20;;;;;;;30.52;22.80;;;19.90;99.90;;;;;;5019166;28;20053;-67
2022/07/21 06:33:45;;;;;;;30.40;20.00;;;19.80;99.90;;;;;;5035628;28;20045;-67
2022/07/21 06:36:11;;;;;;;22.95;18.90;;;19.70;99.90;;;;;;5036547;28;20044;-66
2022/07/21 06:38:37;;;;;;;21.98;18.02;;;20.00;99.90;;;;;;5032276;28;20461;-70
2022/07/21 06:41:03;;;;;;;23.27;19.23;;;19.80;99.90;;;;;;5017875;28;20060;-66
2022/07/21 06:43:29;;;;;;;25.98;21.30;;;20.00;99.90;;;;;;5019578;28;20138;-66
2022/07/21 06:45:56;;;;;;;28.13;20.38;;;19.90;99.90;;;;;;5036918;28;20073;-66
2022/07/21 06:48:24;;;;;;;26.88;20.33;;;19.90;99.90;;;;;;5035778;28;20033;-65
2022/07/21 06:50:50;;;;;;;27.50;20.20;;;19.70;99.90;;;;;;5036821;28;20092;-68
2022/07/21 06:53:16;;;;;;;32.70;19.60;;;19.80;99.90;;;;;;5036949;28;20536;-68
2022/07/21 06:55:42;;;;;;;27.17;21.75;;;19.80;99.90;;;;;;5036649;28;20116;-66
2022/07/21 06:58:18;;;;;;;27.88;19.52;;;19.70;99.90;;;;;;5036815;28;20114;-65
2022/07/21 07:00:45;;;;;;;24.55;18.80;;;19.90;99.90;;;;;;5035673;28;20045;-67
2022/07/21 07:03:11;;;;;;;23.80;18.75;;;19.70;99.90;;;;;;5036536;28;20085;-67
2022/07/21 07:05:37;;;;;;;25.45;19.10;;;19.90;99.90;;;;;;5036552;28;20083;-68
2022/07/21 07:08:03;;;;;;;28.25;20.75;;;20.10;99.90;;;;;;5019202;28;20050;-67
2022/07/21 07:10:29;;;;;;;23.08;17.38;;;19.90;99.90;;;;;;5036627;28;20051;-67
2022/07/21 07:12:55;;;;;;;28.33;20.58;;;20.00;99.90;;;;;;5036652;28;20351;-67
2022/07/21 07:15:23;;;;;;;26.88;18.88;;;20.10;99.90;;;;;;5035826;28;20042;-66
2022/07/21 07:17:49;;;;;;;23.88;17.92;;;20.00;99.90;;;;;;5036503;28;20152;-67
2022/07/21 07:20:15;;;;;;;26.92;19.70;;;20.10;99.90;;;;;;5036268;28;20049;-67
2022/07/21 07:22:40;;;;;;;22.92;19.00;;;20.20;99.90;;;;;;5036316;28;20113;-67
2022/07/21 07:25:07;;;;;;;29.45;21.85;;;20.20;99.90;;;;;;5034681;28;20471;-67
2022/07/21 07:27:32;;;;;;;26.90;22.00;;;20.00;99.90;;;;;;5032820;28;20337;-67
2022/07/21 07:29:58;;;;;;;36.25;20.83;;;20.10;99.90;;;;;;5017797;28;20191;-67
2022/07/21 07:32:23;;;;;;;26.90;20.35;;;20.10;99.90;;;;;;5035839;28;20061;-69
2022/07/21 07:34:49;;;;;;;26.83;20.52;;;20.10;99.90;;;;;;5035821;28;20050;-66
2022/07/21 07:37:15;;;;;;;27.65;22.23;;;20.20;99.90;;;;;;5019164;28;20041;-67
2022/07/21 07:39:40;;;;;;;34.17;22.88;;;20.40;99.90;;;;;;5035925;28;20049;-67
2022/07/21 07:42:06;;;;;;;26.27;21.35;;;20.40;99.90;;;;;;5036071;28;20374;-68
2022/07/21 07:44:32;;;;;;;30.73;26.15;;;20.40;99.90;;;;;;5028182;28;20128;-67
2022/07/21 07:47:01;;;;;;;28.02;22.98;;;20.20;99.90;;;;;;4983870;28;20050;-66
2022/07/21 07:49:28;;;;;;;28.40;24.48;;;20.50;99.90;;;;;;5033569;28;20046;-67
2022/07/21 07:51:53;;;;;;;32.65;26.58;;;20.30;99.90;;;;;;5029743;28;20041;-68
2022/07/21 07:54:19;;;;;;;30.95;25.77;;;20.30;99.90;;;;;;5018585;28;20497;-69
2022/07/21 07:56:45;;;;;;;31.73;28.20;;;20.30;99.90;;;;;;5010103;28;20527;-66
2022/07/21 07:59:10;;;;;;;35.47;30.25;;;20.30;99.90;;;;;;5024734;28;20037;-67
2022/07/21 08:01:36;;;;;;;42.08;34.95;;;20.30;99.90;;;;;;5023496;28;20050;-68
2022/07/21 08:04:02;;;;;;;35.70;29.23;;;20.20;99.90;;;;;;5023016;28;20452;-65
2022/07/21 08:06:27;;;;;;;42.30;31.90;;;20.20;99.90;;;;;;5016812;28;20049;-67
2022/07/21 08:08:53;;;;;;;40.58;30.85;;;20.20;99.90;;;;;;5029002;28;20135;-70
2022/07/21 08:11:18;;;;;;;30.13;25.13;;;20.10;99.90;;;;;;5016473;28;20050;-64
2022/07/21 08:13:44;;;;;;;29.42;25.10;;;20.00;99.90;;;;;;5020531;28;20045;-66
2022/07/21 08:16:11;;;;;;;28.45;25.45;;;20.10;99.90;;;;;;5025584;28;20049;-68
2022/07/21 08:18:37;;;;;;;32.05;26.30;;;20.20;99.90;;;;;;5034206;28;20180;-67
2022/07/21 08:21:03;;;;;;;25.85;22.88;;;20.00;99.90;;;;;;5021724;28;20041;-70
2022/07/21 08:23:29;;;;;;;28.42;24.75;;;20.00;99.90;;;;;;5034907;28;20048;-70
2022/07/21 08:25:54;;;;;;;29.42;24.45;;;20.00;99.90;;;;;;5035368;28;20057;-70
2022/07/21 08:28:20;;;;;;;31.17;24.58;;;20.30;99.90;;;;;;5035156;28;20124;-72
2022/07/21 08:30:46;;;;;;;28.13;25.00;;;20.00;99.90;;;;;;5034211;28;20103;-72
2022/07/21 08:33:11;;;;;;;31.42;24.85;;;20.20;99.90;;;;;;5034319;28;20053;-69
2022/07/21 08:35:37;;;;;;;30.00;25.38;;;20.30;99.90;;;;;;5035133;28;20132;-71
2022/07/21 08:38:05;;;;;;;32.35;29.15;;;20.30;99.90;;;;;;5035097;28;20045;-72
2022/07/21 08:40:36;;;;;;;38.72;31.95;;;20.30;99.90;;;;;;5035289;28;20053;-70
2022/07/21 08:43:02;;;;;;;33.75;29.92;;;20.30;99.90;;;;;;5034309;28;20075;-70
2022/07/21 08:45:30;;;;;;;36.60;32.90;;;20.20;99.90;;;;;;5034208;28;20045;-69
2022/07/21 08:47:57;;;;;;;37.67;33.58;;;20.50;99.90;;;;;;5035330;28;20045;-69
2022/07/21 08:50:29;;;;;;;42.75;37.88;;;20.30;99.90;;;;;;5037748;28;20451;-67
2022/07/21 08:52:54;;;;;;;42.42;37.88;;;20.50;99.90;;;;;;5038195;28;20434;-70
2022/07/21 08:55:20;;;;;;;43.63;35.63;;;20.30;99.90;;;;;;5040549;28;20129;-67
2022/07/21 08:57:45;;;;;;;40.92;36.45;;;20.20;99.90;;;;;;5041592;28;20045;-67
2022/07/21 09:00:12;;;;;;;39.67;35.25;;;19.80;99.90;;;;;;5044952;28;20041;-67
2022/07/21 09:02:38;;;;;;;51.30;40.53;;;19.60;99.90;;;;;;5027126;28;20053;-67
2022/07/21 09:05:08;;;;;;;46.17;39.35;;;19.80;99.90;;;;;;5022767;28;20367;-69
2022/07/21 09:07:49;;;;;;;56.40;42.75;;;19.50;99.90;;;;;;5024949;28;20046;-69
2022/07/21 09:10:15;;;;;;;57.97;42.60;;;19.40;99.90;;;;;;5019077;28;20048;-68
2022/07/21 09:12:55;;;;;;;60.28;43.00;;;19.40;99.90;;;;;;5017855;28;20034;-68
2022/07/21 09:15:23;;;;;;;58.97;43.35;;;19.40;99.90;;;;;;5001726;28;20548;-67
2022/07/21 09:18:07;;;;;;;54.85;40.85;;;19.50;99.90;;;;;;5018888;28;20472;-68
2022/07/21 09:20:33;;;;;;;71.95;45.60;;;19.20;99.90;;;;;;5035641;28;20049;-69
2022/07/21 09:23:03;;;;;;;99.93;51.08;;;19.50;99.90;;;;;;5021281;28;20510;-71
2022/07/21 09:25:40;;;;;;;64.28;41.70;;;19.20;99.90;;;;;;5038269;28;20460;-70
2022/07/21 09:28:27;;;;;;;65.65;44.97;;;19.30;99.90;;;;;;5038704;28;20053;-68
2022/07/21 09:31:13;;;;;;;66.82;46.58;;;19.70;99.90;;;;;;5038413;28;20128;-72
2022/07/21 09:33:38;;;;;;;59.95;42.58;;;19.40;99.90;;;;;;5035086;28;20084;-68
2022/07/21 09:36:20;;;;;;;51.00;39.88;;;19.60;99.90;;;;;;5038301;28;20471;-70
2022/07/21 09:38:58;;;;;;;58.67;43.00;;;19.40;99.90;;;;;;5037914;28;20045;-69
2022/07/21 09:41:25;;;;;;;50.75;39.92;;;19.70;99.90;;;;;;5020868;28;20049;-67
2022/07/21 09:43:53;;;;;;;73.68;47.42;;;19.70;99.90;;;;;;5038112;28;20120;-69
2022/07/21 09:46:28;;;;;;;51.33;40.38;;;19.70;99.90;;;;;;5037094;28;20459;-69
2022/07/21 09:48:56;;;;;;;34.15;30.50;;;19.40;99.90;;;;;;5037423;28;20124;-69
2022/07/21 09:51:43;;;;;;;31.70;28.35;;;19.30;99.90;;;;;;5038049;28;20041;-69
2022/07/21 09:54:11;;;;;;;33.13;29.77;;;19.10;99.90;;;;;;5038090;28;20054;-69
2022/07/21 09:56:42;;;;;;;33.85;29.70;;;19.30;99.90;;;;;;5038050;28;20046;-69
2022/07/21 09:59:09;;;;;;;34.65;29.05;;;19.10;99.90;;;;;;5037730;28;20209;-68
2022/07/21 10:01:36;;;;;;;40.72;33.08;;;19.00;99.90;;;;;;5036645;28;20064;-71
2022/07/21 10:04:02;;;;;;;32.00;28.73;;;19.20;99.90;;;;;;5038092;28;20601;-70
2022/07/21 10:06:33;;;;;;;31.88;28.48;;;18.80;99.90;;;;;;5037685;28;20056;-68
2022/07/21 10:09:00;;;;;;;33.78;28.75;;;19.10;99.90;;;;;;5037538;28;20072;-71
2022/07/21 10:11:26;;;;;;;37.22;31.83;;;18.90;99.90;;;;;;5036401;28;20459;-69
2022/07/21 10:13:52;;;;;;;30.88;27.55;;;19.20;99.90;;;;;;5037839;28;20131;-69
2022/07/21 10:16:18;;;;;;;35.65;31.60;;;19.10;99.90;;;;;;5037614;28;20049;-72
2022/07/21 10:18:55;;;;;;;39.72;30.60;;;19.20;99.90;;;;;;5036551;28;20043;-68
2022/07/21 10:21:30;;;;;;;30.25;27.05;;;19.20;99.90;;;;;;5036777;28;20053;-67
2022/07/21 10:23:55;;;;;;;;;;;19.10;99.90;;;;;;5034161;28;20375;-66
2022/07/21 10:26:22;;;;;;;40.13;32.75;;;19.20;99.90;;;;;;5036395;28;19986;-67
2022/07/21 10:28:48;;;;;;;38.53;32.40;;;18.90;99.90;;;;;;5037369;28;20053;-69
2022/07/21 10:31:17;;;;;;;39.22;33.70;;;18.80;99.90;;;;;;5020077;28;20056;-66
2022/07/21 10:33:43;;;;;;;40.42;33.83;;;18.80;99.90;;;;;;5037112;28;20037;-69
2022/07/21 10:36:09;;;;;;;40.13;33.63;;;19.00;99.90;;;;;;5037031;28;20056;-69
2022/07/21 10:38:37;;;;;;;38.75;33.50;;;19.00;99.90;;;;;;5037013;28;20072;-68
2022/07/21 10:41:05;;;;;;;37.35;33.30;;;18.80;99.90;;;;;;5035180;28;20042;-72
2022/07/21 10:43:30;;;;;;;43.25;32.72;;;19.00;99.90;;;;;;5017190;28;20042;-70
2022/07/21 10:45:57;;;;;;;37.45;32.38;;;19.10;99.90;;;;;;5016781;28;20145;-72
2022/07/21 10:48:41;;;;;;;35.00;31.08;;;18.90;99.90;;;;;;5000025;28;20064;-71
2022/07/21 10:51:09;;;;;;;40.65;33.47;;;18.80;99.90;;;;;;5015167;28;20050;-69
2022/07/21 10:53:35;;;;;;;37.08;33.03;;;18.90;99.90;;;;;;5017822;28;20046;-70
2022/07/21 10:56:01;;;;;;;49.63;36.45;;;19.10;99.90;;;;;;5031376;28;20359;-70
2022/07/21 10:58:37;;;;;;;38.72;31.73;;;19.00;99.90;;;;;;5016428;28;20053;-69
2022/07/21 11:01:14;;;;;;;42.35;34.05;;;19.00;99.90;;;;;;5027384;28;20046;-72
2022/07/21 11:03:42;;;;;;;41.58;33.47;;;19.30;99.90;;;;;;5016427;28;20485;-71
2022/07/21 11:06:27;;;;;;;46.20;36.58;;;19.10;99.90;;;;;;5027364;28;20061;-69
2022/07/21 11:09:04;;;;;;;53.78;40.45;;;19.30;99.90;;;;;;5036298;28;20526;-69
2022/07/21 11:11:32;;;;;;;53.70;40.80;;;19.60;99.90;;;;;;5035543;28;20041;-69
2022/07/21 11:14:01;;;;;;;34.42;30.80;;;19.70;99.90;;;;;;5036503;28;20038;-70
2022/07/21 11:16:41;;;;;;;34.97;30.10;;;19.50;99.90;;;;;;5036606;28;20087;-69
2022/07/21 11:19:29;;;;;;;30.33;27.10;;;19.90;99.90;;;;;;5034842;28;20325;-68
2022/07/21 11:21:55;;;;;;;27.23;24.30;;;19.90;99.90;;;;;;5035790;28;20076;-69
2022/07/21 11:24:22;;;;;;;27.95;23.73;;;19.90;99.90;;;;;;5036342;28;20045;-69
2022/07/21 11:26:59;;;;;;;29.05;25.65;;;19.60;99.90;;;;;;5035486;28;20053;-68
2022/07/21 11:29:26;;;;;;;24.23;21.75;;;19.70;99.90;;;;;;5036177;28;20530;-70
2022/07/21 11:31:52;;;;;;;30.08;25.27;;;19.80;99.90;;;;;;5031532;28;20049;-69
2022/07/21 11:34:18;;;;;;;24.88;22.42;;;19.80;99.90;;;;;;5035780;28;20041;-69
2022/07/21 11:36:44;;;;;;;26.60;23.63;;;19.70;99.90;;;;;;5018803;28;20063;-69
2022/07/21 11:39:12;;;;;;;25.42;22.52;;;19.70;99.90;;;;;;5036254;28;20053;-68
2022/07/21 11:41:40;;;;;;;25.13;22.20;;;19.80;99.90;;;;;;5035061;28;20080;-69
2022/07/21 11:44:07;;;;;;;27.77;24.58;;;20.10;99.90;;;;;;5035915;28;20045;-69
2022/07/21 11:46:50;;;;;;;24.58;21.98;;;20.00;99.90;;;;;;5018498;28;20052;-67
2022/07/21 11:49:16;;;;;;;25.45;21.85;;;20.20;99.90;;;;;;5035963;28;20120;-70
2022/07/21 11:51:47;;;;;;;18.50;16.63;;;20.10;99.90;;;;;;5035923;28;20049;-69
2022/07/21 11:54:20;;;;;;;16.98;15.25;;;19.90;99.90;;;;;;5017489;28;20038;-69
2022/07/21 11:56:49;;;;;;;17.17;15.40;;;20.20;99.90;;;;;;5029827;28;20049;-68
2022/07/21 11:59:14;;;;;;;16.77;15.00;;;19.90;99.90;;;;;;5015665;28;20053;-68
2022/07/21 12:01:50;;;;;;;16.08;14.48;;;20.20;99.90;;;;;;5015919;28;20042;-70
2022/07/21 12:04:45;;;;;;;17.52;15.82;;;20.00;99.90;;;;;;5015685;28;20412;-70
2022/07/21 12:07:12;;;;;;;18.80;16.92;;;20.00;99.90;;;;;;5017588;28;20452;-69
2022/07/21 12:09:39;;;;;;;20.27;18.00;;;19.90;99.90;;;;;;5034744;28;20054;-69
2022/07/21 12:12:05;;;;;;;20.95;18.77;;;20.00;99.90;;;;;;5017864;28;20053;-68
2022/07/21 12:14:50;;;;;;;19.02;17.08;;;19.80;99.90;;;;;;5022903;28;20069;-67
2022/07/21 12:17:36;;;;;;;20.85;18.75;;;19.70;99.90;;;;;;5018544;28;20073;-70
2022/07/21 12:20:03;;;;;;;19.63;17.35;;;19.60;99.90;;;;;;5023759;28;20046;-71
2022/07/21 12:22:44;;;;;;;21.13;17.88;;;19.60;99.90;;;;;;5024467;28;20038;-69
2022/07/21 12:25:11;;;;;;;23.00;19.40;;;19.70;99.90;;;;;;5034248;28;20056;-71
2022/07/21 12:27:39;;;;;;;19.65;17.65;;;20.00;99.90;;;;;;5034354;28;20061;-71
2022/07/21 12:30:08;;;;;;;20.60;17.77;;;20.00;99.90;;;;;;5034427;28;20056;-69
2022/07/21 12:32:49;;;;;;;19.42;17.50;;;19.90;99.90;;;;;;5034126;28;20065;-69